sensor_id;sensor_type;location;lat;lon;timestamp;temperature;humidity
79049;DHT22;68680;50.764;6.120;2024-02-15T00:01:43;11.70;99.90
79049;DHT22;68680;50.764;6.120;2024-02-15T00:04:09;11.70;99.90
79049;DHT22;68680;50.764;6.120;2024-02-15T00:06:34;11.60;99.90
79049;DHT22;68680;50.764;6.120;2024-02-15T00:09:00;11.70;99.90
79049;DHT22;68680;50.764;6.120;2024-02-15T00:11:26;11.70;99.90
79049;DHT22;68680;50.764;6.120;2024-02-15T00:13:52;11.70;99.90
79049;DHT22;68680;50.764;6.120;2024-02-15T00:16:18;11.70;99.90
79049;DHT22;68680;50.764;6.120;2024-02-15T00:18:45;11.70;99.90
79049;DHT22;68680;50.764;6.120;2024-02-15T00:21:11;11.60;99.90
79049;DHT22;68680;50.764;6.120;2024-02-15T00:23:37;11.60;99.90
79049;DHT22;68680;50.764;6.120;2024-02-15T00:26:02;11.70;99.90
79049;DHT22;68680;50.764;6.120;2024-02-15T00:28:28;11.70;99.90
79049;DHT22;68680;50.764;6.120;2024-02-15T00:30:54;11.60;99.90
79049;DHT22;68680;50.764;6.120;2024-02-15T00:33:20;11.70;99.90
79049;DHT22;68680;50.764;6.120;2024-02-15T00:35:47;11.70;99.90
79049;DHT22;68680;50.764;6.120;2024-02-15T00:38:13;11.70;99.90
79049;DHT22;68680;50.764;6.120;2024-02-15T00:40:39;11.70;99.90
79049;DHT22;68680;50.764;6.120;2024-02-15T00:43:05;11.70;99.90
79049;DHT22;68680;50.764;6.120;2024-02-15T00:45:31;11.70;99.90
79049;DHT22;68680;50.764;6.120;2024-02-15T00:47:56;11.80;99.90
79049;DHT22;68680;50.764;6.120;2024-02-15T00:50:22;11.80;99.90
79049;DHT22;68680;50.764;6.120;2024-02-15T00:52:49;11.80;99.90
79049;DHT22;68680;50.764;6.120;2024-02-15T00:55:15;11.80;99.90
79049;DHT22;68680;50.764;6.120;2024-02-15T00:57:41;11.80;99.90
79049;DHT22;68680;50.764;6.120;2024-02-15T01:00:07;11.70;99.90
79049;DHT22;68680;50.764;6.120;2024-02-15T01:02:34;11.70;99.90
79049;DHT22;68680;50.764;6.120;2024-02-15T01:05:00;11.80;99.90
79049;DHT22;68680;50.764;6.120;2024-02-15T01:07:25;11.80;99.90
79049;DHT22;68680;50.764;6.120;2024-02-15T01:09:53;11.80;99.90
79049;DHT22;68680;50.764;6.120;2024-02-15T01:12:19;11.80;99.90
79049;DHT22;68680;50.764;6.120;2024-02-15T01:14:45;11.80;99.90
79049;DHT22;68680;50.764;6.120;2024-02-15T01:17:10;11.80;99.90
79049;DHT22;68680;50.764;6.120;2024-02-15T01:19:36;11.80;99.90
79049;DHT22;68680;50.764;6.120;2024-02-15T01:22:02;11.80;99.90
79049;DHT22;68680;50.764;6.120;2024-02-15T01:24:28;11.90;99.90
79049;DHT22;68680;50.764;6.120;2024-02-15T01:26:55;11.90;99.90
79049;DHT22;68680;50.764;6.120;2024-02-15T01:29:21;11.90;99.90
79049;DHT22;68680;50.764;6.120;2024-02-15T01:31:46;11.90;99.90
79049;DHT22;68680;50.764;6.120;2024-02-15T01:34:12;11.90;99.90
79049;DHT22;68680;50.764;6.120;2024-02-15T01:36:38;11.90;99.90
79049;DHT22;68680;50.764;6.120;2024-02-15T01:39:04;11.90;99.90
79049;DHT22;68680;50.764;6.120;2024-02-15T01:41:29;11.90;99.90
79049;DHT22;68680;50.764;6.120;2024-02-15T01:43:56;11.90;99.90
79049;DHT22;68680;50.764;6.120;2024-02-15T01:46:22;11.90;99.90
79049;DHT22;68680;50.764;6.120;2024-02-15T01:48:48;11.90;99.90
79049;DHT22;68680;50.764;6.120;2024-02-15T01:51:18;11.90;99.90
79049;DHT22;68680;50.764;6.120;2024-02-15T01:53:44;11.90;99.90
79049;DHT22;68680;50.764;6.120;2024-02-15T01:56:13;11.90;99.90
79049;DHT22;68680;50.764;6.120;2024-02-15T01:58:40;11.90;99.90
79049;DHT22;68680;50.764;6.120;2024-02-15T02:01:09;11.90;99.90
79049;DHT22;68680;50.764;6.120;2024-02-15T02:03:36;12.00;99.90
79049;DHT22;68680;50.764;6.120;2024-02-15T02:06:04;12.00;99.90
79049;DHT22;68680;50.764;6.120;2024-02-15T02:08:30;12.00;99.90
79049;DHT22;68680;50.764;6.120;2024-02-15T02:10:56;12.00;99.90
79049;DHT22;68680;50.764;6.120;2024-02-15T02:13:23;12.00;99.90
79049;DHT22;68680;50.764;6.120;2024-02-15T02:15:49;12.00;99.90
79049;DHT22;68680;50.764;6.120;2024-02-15T02:18:16;12.00;99.90
79049;DHT22;68680;50.764;6.120;2024-02-15T02:20:42;12.00;99.90
79049;DHT22;68680;50.764;6.120;2024-02-15T02:23:13;11.90;99.90
79049;DHT22;68680;50.764;6.120;2024-02-15T02:25:41;11.90;99.90
79049;DHT22;68680;50.764;6.120;2024-02-15T02:28:09;11.90;99.90
79049;DHT22;68680;50.764;6.120;2024-02-15T02:30:35;12.00;99.90
79049;DHT22;68680;50.764;6.120;2024-02-15T02:33:01;12.00;99.90
79049;DHT22;68680;50.764;6.120;2024-02-15T02:35:27;12.00;99.90
79049;DHT22;68680;50.764;6.120;2024-02-15T02:37:53;11.90;99.90
79049;DHT22;68680;50.764;6.120;2024-02-15T02:40:19;12.00;99.90
79049;DHT22;68680;50.764;6.120;2024-02-15T02:42:51;12.00;99.90
79049;DHT22;68680;50.764;6.120;2024-02-15T02:45:18;12.00;99.90
79049;DHT22;68680;50.764;6.120;2024-02-15T02:47:45;12.10;99.90
79049;DHT22;68680;50.764;6.120;2024-02-15T02:50:11;12.10;99.90
79049;DHT22;68680;50.764;6.120;2024-02-15T02:52:37;12.00;99.90
79049;DHT22;68680;50.764;6.120;2024-02-15T02:55:03;12.00;99.90
79049;DHT22;68680;50.764;6.120;2024-02-15T02:57:29;12.00;99.90
79049;DHT22;68680;50.764;6.120;2024-02-15T02:59:56;12.00;99.90
79049;DHT22;68680;50.764;6.120;2024-02-15T03:02:22;11.90;99.90
79049;DHT22;68680;50.764;6.120;2024-02-15T03:04:48;11.90;99.90
79049;DHT22;68680;50.764;6.120;2024-02-15T03:07:14;11.80;99.90
79049;DHT22;68680;50.764;6.120;2024-02-15T03:09:40;11.80;99.90
79049;DHT22;68680;50.764;6.120;2024-02-15T03:12:06;11.70;99.90
79049;DHT22;68680;50.764;6.120;2024-02-15T03:14:32;11.70;99.90
79049;DHT22;68680;50.764;6.120;2024-02-15T03:16:59;11.70;99.90
79049;DHT22;68680;50.764;6.120;2024-02-15T03:19:25;11.70;99.90
79049;DHT22;68680;50.764;6.120;2024-02-15T03:21:51;11.70;99.90
79049;DHT22;68680;50.764;6.120;2024-02-15T03:24:17;11.70;99.90
79049;DHT22;68680;50.764;6.120;2024-02-15T03:26:42;11.70;99.90
79049;DHT22;68680;50.764;6.120;2024-02-15T03:29:08;11.60;99.90
79049;DHT22;68680;50.764;6.120;2024-02-15T03:31:35;11.60;99.90
79049;DHT22;68680;50.764;6.120;2024-02-15T03:34:02;11.60;99.90
79049;DHT22;68680;50.764;6.120;2024-02-15T03:36:28;11.70;99.90
79049;DHT22;68680;50.764;6.120;2024-02-15T03:38:54;11.60;99.90
79049;DHT22;68680;50.764;6.120;2024-02-15T03:41:20;11.60;99.90
79049;DHT22;68680;50.764;6.120;2024-02-15T03:43:46;11.50;99.90
79049;DHT22;68680;50.764;6.120;2024-02-15T03:46:12;11.50;99.90
79049;DHT22;68680;50.764;6.120;2024-02-15T03:48:38;11.50;99.90
79049;DHT22;68680;50.764;6.120;2024-02-15T03:51:06;11.40;99.90
79049;DHT22;68680;50.764;6.120;2024-02-15T03:53:31;11.40;99.90
79049;DHT22;68680;50.764;6.120;2024-02-15T03:55:57;11.30;99.90
79049;DHT22;68680;50.764;6.120;2024-02-15T03:58:23;11.30;99.90
79049;DHT22;68680;50.764;6.120;2024-02-15T04:00:49;11.30;99.90
79049;DHT22;68680;50.764;6.120;2024-02-15T04:03:15;11.30;99.90
79049;DHT22;68680;50.764;6.120;2024-02-15T04:05:41;11.30;99.90
79049;DHT22;68680;50.764;6.120;2024-02-15T04:08:08;11.40;99.90
79049;DHT22;68680;50.764;6.120;2024-02-15T04:10:34;11.40;99.90
79049;DHT22;68680;50.764;6.120;2024-02-15T04:13:00;11.40;99.90
79049;DHT22;68680;50.764;6.120;2024-02-15T04:15:26;11.40;99.90
79049;DHT22;68680;50.764;6.120;2024-02-15T04:17:51;11.40;99.90
79049;DHT22;68680;50.764;6.120;2024-02-15T04:20:17;11.40;99.90
79049;DHT22;68680;50.764;6.120;2024-02-15T04:22:43;11.40;99.90
79049;DHT22;68680;50.764;6.120;2024-02-15T04:25:11;11.40;99.90
79049;DHT22;68680;50.764;6.120;2024-02-15T04:27:37;11.40;99.90
79049;DHT22;68680;50.764;6.120;2024-02-15T04:30:03;11.40;99.90
79049;DHT22;68680;50.764;6.120;2024-02-15T04:32:29;11.40;99.90
79049;DHT22;68680;50.764;6.120;2024-02-15T04:34:55;11.40;99.90
79049;DHT22;68680;50.764;6.120;2024-02-15T04:37:21;11.40;99.90
79049;DHT22;68680;50.764;6.120;2024-02-15T04:39:47;11.30;99.90
79049;DHT22;68680;50.764;6.120;2024-02-15T04:42:14;11.30;99.90
79049;DHT22;68680;50.764;6.120;2024-02-15T04:44:40;11.30;99.90
79049;DHT22;68680;50.764;6.120;2024-02-15T04:47:06;11.30;99.90
79049;DHT22;68680;50.764;6.120;2024-02-15T04:49:32;11.30;99.90
79049;DHT22;68680;50.764;6.120;2024-02-15T04:51:58;11.40;99.90
79049;DHT22;68680;50.764;6.120;2024-02-15T04:54:25;11.40;99.90
79049;DHT22;68680;50.764;6.120;2024-02-15T04:56:50;11.50;99.90
79049;DHT22;68680;50.764;6.120;2024-02-15T04:59:18;11.50;99.90
79049;DHT22;68680;50.764;6.120;2024-02-15T05:01:44;11.60;99.90
79049;DHT22;68680;50.764;6.120;2024-02-15T05:04:10;11.60;99.90
79049;DHT22;68680;50.764;6.120;2024-02-15T05:06:36;11.60;99.90
79049;DHT22;68680;50.764;6.120;2024-02-15T05:09:02;11.60;99.90
79049;DHT22;68680;50.764;6.120;2024-02-15T05:11:28;11.70;99.90
79049;DHT22;68680;50.764;6.120;2024-02-15T05:13:54;11.60;99.90
79049;DHT22;68680;50.764;6.120;2024-02-15T05:16:21;11.70;99.90
79049;DHT22;68680;50.764;6.120;2024-02-15T05:18:47;11.70;99.90
79049;DHT22;68680;50.764;6.120;2024-02-15T05:21:13;11.70;99.90
79049;DHT22;68680;50.764;6.120;2024-02-15T05:23:39;11.70;99.90
79049;DHT22;68680;50.764;6.120;2024-02-15T05:26:05;11.80;99.90
79049;DHT22;68680;50.764;6.120;2024-02-15T05:28:32;11.80;99.90
79049;DHT22;68680;50.764;6.120;2024-02-15T05:31:11;11.70;99.90
79049;DHT22;68680;50.764;6.120;2024-02-15T05:33:39;11.70;99.90
79049;DHT22;68680;50.764;6.120;2024-02-15T05:36:05;11.70;99.90
79049;DHT22;68680;50.764;6.120;2024-02-15T05:38:31;11.70;99.90
79049;DHT22;68680;50.764;6.120;2024-02-15T05:40:57;11.70;99.90
79049;DHT22;68680;50.764;6.120;2024-02-15T05:43:23;11.70;99.90
79049;DHT22;68680;50.764;6.120;2024-02-15T05:45:48;11.70;99.90
79049;DHT22;68680;50.764;6.120;2024-02-15T05:48:14;11.70;99.90
79049;DHT22;68680;50.764;6.120;2024-02-15T05:50:42;11.80;99.90
79049;DHT22;68680;50.764;6.120;2024-02-15T05:53:07;11.80;99.90
79049;DHT22;68680;50.764;6.120;2024-02-15T05:55:33;11.80;99.90
79049;DHT22;68680;50.764;6.120;2024-02-15T05:57:59;11.80;99.90
79049;DHT22;68680;50.764;6.120;2024-02-15T06:00:25;11.80;99.90
79049;DHT22;68680;50.764;6.120;2024-02-15T06:02:51;11.80;99.90
79049;DHT22;68680;50.764;6.120;2024-02-15T06:05:17;11.80;99.90
79049;DHT22;68680;50.764;6.120;2024-02-15T06:07:45;11.90;99.90
79049;DHT22;68680;50.764;6.120;2024-02-15T06:10:11;11.90;99.90
79049;DHT22;68680;50.764;6.120;2024-02-15T06:12:37;11.90;99.90
79049;DHT22;68680;50.764;6.120;2024-02-15T06:15:03;11.90;99.90
79049;DHT22;68680;50.764;6.120;2024-02-15T06:17:29;11.90;99.90
79049;DHT22;68680;50.764;6.120;2024-02-15T06:19:57;11.90;99.90
79049;DHT22;68680;50.764;6.120;2024-02-15T06:22:22;11.90;99.90
79049;DHT22;68680;50.764;6.120;2024-02-15T06:24:50;11.90;99.90
79049;DHT22;68680;50.764;6.120;2024-02-15T06:27:15;11.90;99.90
79049;DHT22;68680;50.764;6.120;2024-02-15T06:29:41;11.90;99.90
79049;DHT22;68680;50.764;6.120;2024-02-15T06:32:07;11.90;99.90
79049;DHT22;68680;50.764;6.120;2024-02-15T06:34:33;11.90;99.90
79049;DHT22;68680;50.764;6.120;2024-02-15T06:36:59;12.00;99.90
79049;DHT22;68680;50.764;6.120;2024-02-15T06:39:25;12.00;99.90
79049;DHT22;68680;50.764;6.120;2024-02-15T06:41:52;12.00;99.90
79049;DHT22;68680;50.764;6.120;2024-02-15T06:44:18;12.00;99.90
79049;DHT22;68680;50.764;6.120;2024-02-15T06:46:44;12.10;99.90
79049;DHT22;68680;50.764;6.120;2024-02-15T06:49:10;12.00;99.90
79049;DHT22;68680;50.764;6.120;2024-02-15T06:51:36;12.00;99.90
79049;DHT22;68680;50.764;6.120;2024-02-15T06:54:01;12.00;99.90
79049;DHT22;68680;50.764;6.120;2024-02-15T06:56:27;12.00;99.90
79049;DHT22;68680;50.764;6.120;2024-02-15T06:58:54;12.10;99.90
79049;DHT22;68680;50.764;6.120;2024-02-15T07:01:20;12.10;99.90
79049;DHT22;68680;50.764;6.120;2024-02-15T07:03:46;12.10;99.90
79049;DHT22;68680;50.764;6.120;2024-02-15T07:06:12;12.20;99.90
79049;DHT22;68680;50.764;6.120;2024-02-15T07:08:39;12.20;99.90
79049;DHT22;68680;50.764;6.120;2024-02-15T07:11:06;12.20;99.90
79049;DHT22;68680;50.764;6.120;2024-02-15T07:13:32;12.20;99.90
79049;DHT22;68680;50.764;6.120;2024-02-15T07:15:59;12.20;99.90
79049;DHT22;68680;50.764;6.120;2024-02-15T07:18:25;12.30;99.90
79049;DHT22;68680;50.764;6.120;2024-02-15T07:20:51;12.30;99.90
79049;DHT22;68680;50.764;6.120;2024-02-15T07:23:17;12.30;99.90
79049;DHT22;68680;50.764;6.120;2024-02-15T07:25:43;12.30;99.90
79049;DHT22;68680;50.764;6.120;2024-02-15T07:28:08;12.30;99.90
79049;DHT22;68680;50.764;6.120;2024-02-15T07:30:34;12.40;99.90
79049;DHT22;68680;50.764;6.120;2024-02-15T07:33:02;12.30;99.90
79049;DHT22;68680;50.764;6.120;2024-02-15T07:35:29;12.30;99.90
79049;DHT22;68680;50.764;6.120;2024-02-15T07:37:55;12.30;99.90
79049;DHT22;68680;50.764;6.120;2024-02-15T07:40:21;12.40;99.90
79049;DHT22;68680;50.764;6.120;2024-02-15T07:42:47;12.40;99.90
79049;DHT22;68680;50.764;6.120;2024-02-15T07:45:13;12.40;99.90
79049;DHT22;68680;50.764;6.120;2024-02-15T07:47:39;12.40;99.90
79049;DHT22;68680;50.764;6.120;2024-02-15T07:50:06;12.50;99.90
79049;DHT22;68680;50.764;6.120;2024-02-15T07:52:33;12.50;99.90
79049;DHT22;68680;50.764;6.120;2024-02-15T07:54:59;12.50;99.90
79049;DHT22;68680;50.764;6.120;2024-02-15T07:57:25;12.60;99.90
79049;DHT22;68680;50.764;6.120;2024-02-15T07:59:50;12.60;99.90
79049;DHT22;68680;50.764;6.120;2024-02-15T08:02:16;12.60;99.90
79049;DHT22;68680;50.764;6.120;2024-02-15T08:04:42;12.70;99.90
79049;DHT22;68680;50.764;6.120;2024-02-15T08:07:09;12.70;99.90
79049;DHT22;68680;50.764;6.120;2024-02-15T08:09:36;12.70;99.90
79049;DHT22;68680;50.764;6.120;2024-02-15T08:12:02;12.80;99.90
79049;DHT22;68680;50.764;6.120;2024-02-15T08:14:28;12.80;99.90
79049;DHT22;68680;50.764;6.120;2024-02-15T08:16:54;12.90;99.90
79049;DHT22;68680;50.764;6.120;2024-02-15T08:19:20;12.90;99.90
79049;DHT22;68680;50.764;6.120;2024-02-15T08:21:46;13.00;99.90
79049;DHT22;68680;50.764;6.120;2024-02-15T08:24:13;13.00;99.90
79049;DHT22;68680;50.764;6.120;2024-02-15T08:26:39;13.00;99.90
79049;DHT22;68680;50.764;6.120;2024-02-15T08:29:05;13.10;99.90
79049;DHT22;68680;50.764;6.120;2024-02-15T08:31:31;13.10;99.90
79049;DHT22;68680;50.764;6.120;2024-02-15T08:33:57;13.10;99.90
79049;DHT22;68680;50.764;6.120;2024-02-15T08:36:23;13.20;99.90
79049;DHT22;68680;50.764;6.120;2024-02-15T08:38:50;13.20;99.90
79049;DHT22;68680;50.764;6.120;2024-02-15T08:41:17;13.20;99.90
79049;DHT22;68680;50.764;6.120;2024-02-15T08:43:43;13.20;99.90
79049;DHT22;68680;50.764;6.120;2024-02-15T08:46:09;13.30;99.90
79049;DHT22;68680;50.764;6.120;2024-02-15T08:48:35;13.30;99.90
79049;DHT22;68680;50.764;6.120;2024-02-15T08:51:01;13.40;99.90
79049;DHT22;68680;50.764;6.120;2024-02-15T08:53:27;13.40;99.90
79049;DHT22;68680;50.764;6.120;2024-02-15T08:55:53;13.50;99.90
79049;DHT22;68680;50.764;6.120;2024-02-15T08:58:20;13.50;99.90
79049;DHT22;68680;50.764;6.120;2024-02-15T09:00:46;13.60;99.90
79049;DHT22;68680;50.764;6.120;2024-02-15T09:03:12;13.60;99.90
79049;DHT22;68680;50.764;6.120;2024-02-15T09:05:38;13.70;99.90
79049;DHT22;68680;50.764;6.120;2024-02-15T09:08:05;13.70;99.90
79049;DHT22;68680;50.764;6.120;2024-02-15T09:10:31;13.80;99.90
79049;DHT22;68680;50.764;6.120;2024-02-15T09:12:57;13.80;99.90
79049;DHT22;68680;50.764;6.120;2024-02-15T09:15:25;13.90;99.90
79049;DHT22;68680;50.764;6.120;2024-02-15T09:17:51;13.90;99.90
79049;DHT22;68680;50.764;6.120;2024-02-15T09:20:17;13.90;99.90
79049;DHT22;68680;50.764;6.120;2024-02-15T09:22:44;14.00;99.90
79049;DHT22;68680;50.764;6.120;2024-02-15T09:25:12;14.00;99.90
79049;DHT22;68680;50.764;6.120;2024-02-15T09:27:38;14.10;99.90
79049;DHT22;68680;50.764;6.120;2024-02-15T09:30:05;14.20;99.90
79049;DHT22;68680;50.764;6.120;2024-02-15T09:32:33;14.20;99.90
79049;DHT22;68680;50.764;6.120;2024-02-15T09:34:59;14.30;99.90
79049;DHT22;68680;50.764;6.120;2024-02-15T09:37:25;14.40;99.90
79049;DHT22;68680;50.764;6.120;2024-02-15T09:39:51;14.40;99.90
79049;DHT22;68680;50.764;6.120;2024-02-15T09:42:16;14.40;99.90
79049;DHT22;68680;50.764;6.120;2024-02-15T09:44:43;14.40;99.90
79049;DHT22;68680;50.764;6.120;2024-02-15T09:47:09;14.50;99.90
79049;DHT22;68680;50.764;6.120;2024-02-15T09:49:39;14.60;99.90
79049;DHT22;68680;50.764;6.120;2024-02-15T09:52:07;14.60;99.90
79049;DHT22;68680;50.764;6.120;2024-02-15T09:54:34;14.60;99.90
79049;DHT22;68680;50.764;6.120;2024-02-15T09:57:01;14.70;99.90
79049;DHT22;68680;50.764;6.120;2024-02-15T09:59:27;14.70;99.90
79049;DHT22;68680;50.764;6.120;2024-02-15T10:01:58;14.70;99.90
79049;DHT22;68680;50.764;6.120;2024-02-15T10:04:24;14.80;99.90
79049;DHT22;68680;50.764;6.120;2024-02-15T10:06:52;14.90;99.90
79049;DHT22;68680;50.764;6.120;2024-02-15T10:09:24;14.90;99.90
79049;DHT22;68680;50.764;6.120;2024-02-15T10:11:54;14.90;99.90
79049;DHT22;68680;50.764;6.120;2024-02-15T10:14:20;14.80;99.90
79049;DHT22;68680;50.764;6.120;2024-02-15T10:16:46;14.80;99.90
79049;DHT22;68680;50.764;6.120;2024-02-15T10:19:12;14.80;99.90
79049;DHT22;68680;50.764;6.120;2024-02-15T10:21:38;14.80;99.90
79049;DHT22;68680;50.764;6.120;2024-02-15T10:24:07;14.80;99.90
79049;DHT22;68680;50.764;6.120;2024-02-15T10:26:35;14.90;99.90
79049;DHT22;68680;50.764;6.120;2024-02-15T10:29:08;14.80;99.90
79049;DHT22;68680;50.764;6.120;2024-02-15T10:31:35;14.90;99.90
79049;DHT22;68680;50.764;6.120;2024-02-15T10:34:03;14.80;99.90
79049;DHT22;68680;50.764;6.120;2024-02-15T10:36:30;14.90;99.90
79049;DHT22;68680;50.764;6.120;2024-02-15T10:39:11;14.90;99.90
79049;DHT22;68680;50.764;6.120;2024-02-15T10:41:41;14.90;99.90
79049;DHT22;68680;50.764;6.120;2024-02-15T10:44:09;14.90;99.90
79049;DHT22;68680;50.764;6.120;2024-02-15T10:46:35;14.90;99.90
79049;DHT22;68680;50.764;6.120;2024-02-15T10:49:01;14.90;99.90
79049;DHT22;68680;50.764;6.120;2024-02-15T10:51:27;14.90;99.90
79049;DHT22;68680;50.764;6.120;2024-02-15T10:53:58;15.00;99.90
79049;DHT22;68680;50.764;6.120;2024-02-15T10:56:34;15.00;99.90
79049;DHT22;68680;50.764;6.120;2024-02-15T10:59:10;15.10;99.90
79049;DHT22;68680;50.764;6.120;2024-02-15T11:01:42;15.10;99.90
79049;DHT22;68680;50.764;6.120;2024-02-15T11:04:14;15.10;99.90
79049;DHT22;68680;50.764;6.120;2024-02-15T11:06:42;15.10;99.90
79049;DHT22;68680;50.764;6.120;2024-02-15T11:09:09;15.20;99.90
79049;DHT22;68680;50.764;6.120;2024-02-15T11:11:37;15.20;99.90
79049;DHT22;68680;50.764;6.120;2024-02-15T11:14:23;15.30;99.90
79049;DHT22;68680;50.764;6.120;2024-02-15T11:16:49;15.30;99.90
79049;DHT22;68680;50.764;6.120;2024-02-15T11:19:43;15.20;99.90
79049;DHT22;68680;50.764;6.120;2024-02-15T11:22:10;15.30;99.90
79049;DHT22;68680;50.764;6.120;2024-02-15T11:24:37;15.40;99.90
79049;DHT22;68680;50.764;6.120;2024-02-15T11:27:24;15.40;99.90
79049;DHT22;68680;50.764;6.120;2024-02-15T11:29:52;15.40;99.90
79049;DHT22;68680;50.764;6.120;2024-02-15T11:32:42;15.50;99.90
79049;DHT22;68680;50.764;6.120;2024-02-15T11:35:10;15.60;99.90
79049;DHT22;68680;50.764;6.120;2024-02-15T11:37:54;15.60;99.90
79049;DHT22;68680;50.764;6.120;2024-02-15T11:40:21;15.70;99.90
79049;DHT22;68680;50.764;6.120;2024-02-15T11:42:50;15.80;99.90
79049;DHT22;68680;50.764;6.120;2024-02-15T11:45:17;15.80;99.90
79049;DHT22;68680;50.764;6.120;2024-02-15T11:47:42;15.90;99.90
79049;DHT22;68680;50.764;6.120;2024-02-15T11:50:12;15.80;99.90
79049;DHT22;68680;50.764;6.120;2024-02-15T11:52:38;15.70;99.90
79049;DHT22;68680;50.764;6.120;2024-02-15T11:55:05;15.70;99.90
79049;DHT22;68680;50.764;6.120;2024-02-15T11:57:31;15.80;99.90
79049;DHT22;68680;50.764;6.120;2024-02-15T11:59:59;15.80;99.90
79049;DHT22;68680;50.764;6.120;2024-02-15T12:02:24;15.70;99.90
79049;DHT22;68680;50.764;6.120;2024-02-15T12:04:51;15.70;99.90
79049;DHT22;68680;50.764;6.120;2024-02-15T12:07:17;15.80;99.90
79049;DHT22;68680;50.764;6.120;2024-02-15T12:09:43;15.70;99.90
79049;DHT22;68680;50.764;6.120;2024-02-15T12:12:10;15.80;99.90
79049;DHT22;68680;50.764;6.120;2024-02-15T12:14:36;15.80;99.90
79049;DHT22;68680;50.764;6.120;2024-02-15T12:17:05;15.80;99.90
79049;DHT22;68680;50.764;6.120;2024-02-15T12:19:32;15.80;99.90
79049;DHT22;68680;50.764;6.120;2024-02-15T12:21:58;15.90;99.90
79049;DHT22;68680;50.764;6.120;2024-02-15T12:24:25;15.90;99.90
79049;DHT22;68680;50.764;6.120;2024-02-15T12:26:51;16.00;99.90
79049;DHT22;68680;50.764;6.120;2024-02-15T12:29:17;16.00;99.90
79049;DHT22;68680;50.764;6.120;2024-02-15T12:31:44;15.90;99.90
79049;DHT22;68680;50.764;6.120;2024-02-15T12:34:11;15.90;99.90
79049;DHT22;68680;50.764;6.120;2024-02-15T12:36:37;16.00;99.90
79049;DHT22;68680;50.764;6.120;2024-02-15T12:39:04;16.00;99.90
79049;DHT22;68680;50.764;6.120;2024-02-15T12:41:31;16.00;99.90
79049;DHT22;68680;50.764;6.120;2024-02-15T12:43:57;16.00;99.90
79049;DHT22;68680;50.764;6.120;2024-02-15T12:46:23;16.00;99.90
79049;DHT22;68680;50.764;6.120;2024-02-15T12:48:49;16.00;99.90
79049;DHT22;68680;50.764;6.120;2024-02-15T12:51:16;15.90;99.90
79049;DHT22;68680;50.764;6.120;2024-02-15T12:53:42;15.90;99.90
79049;DHT22;68680;50.764;6.120;2024-02-15T12:56:08;15.90;99.90
79049;DHT22;68680;50.764;6.120;2024-02-15T12:58:34;15.90;99.90
79049;DHT22;68680;50.764;6.120;2024-02-15T13:01:01;15.90;99.90
79049;DHT22;68680;50.764;6.120;2024-02-15T13:03:27;15.90;99.90
79049;DHT22;68680;50.764;6.120;2024-02-15T13:05:53;15.90;99.90
79049;DHT22;68680;50.764;6.120;2024-02-15T13:08:20;15.90;99.90
79049;DHT22;68680;50.764;6.120;2024-02-15T13:10:46;15.80;99.90
79049;DHT22;68680;50.764;6.120;2024-02-15T13:13:12;15.70;99.90
79049;DHT22;68680;50.764;6.120;2024-02-15T13:15:38;15.70;99.90
79049;DHT22;68680;50.764;6.120;2024-02-15T13:18:04;15.70;99.90
79049;DHT22;68680;50.764;6.120;2024-02-15T13:20:30;15.70;99.90
79049;DHT22;68680;50.764;6.120;2024-02-15T13:22:56;15.70;99.90
79049;DHT22;68680;50.764;6.120;2024-02-15T13:25:24;15.60;99.90
79049;DHT22;68680;50.764;6.120;2024-02-15T13:27:50;15.60;99.90
79049;DHT22;68680;50.764;6.120;2024-02-15T13:30:16;15.60;99.90
79049;DHT22;68680;50.764;6.120;2024-02-15T13:32:41;15.60;99.90
79049;DHT22;68680;50.764;6.120;2024-02-15T13:35:09;15.60;99.90
79049;DHT22;68680;50.764;6.120;2024-02-15T13:37:35;15.70;99.90
79049;DHT22;68680;50.764;6.120;2024-02-15T13:40:01;15.70;99.90
79049;DHT22;68680;50.764;6.120;2024-02-15T13:42:28;15.80;99.90
79049;DHT22;68680;50.764;6.120;2024-02-15T13:44:54;15.90;99.90
79049;DHT22;68680;50.764;6.120;2024-02-15T13:47:20;15.90;99.90
79049;DHT22;68680;50.764;6.120;2024-02-15T13:49:46;15.80;99.90
79049;DHT22;68680;50.764;6.120;2024-02-15T13:52:12;15.80;99.90
79049;DHT22;68680;50.764;6.120;2024-02-15T13:54:37;15.70;99.90
79049;DHT22;68680;50.764;6.120;2024-02-15T13:57:04;15.60;99.90
79049;DHT22;68680;50.764;6.120;2024-02-15T13:59:31;15.60;99.90
79049;DHT22;68680;50.764;6.120;2024-02-15T14:01:57;15.60;99.90
79049;DHT22;68680;50.764;6.120;2024-02-15T14:04:23;15.60;99.90
79049;DHT22;68680;50.764;6.120;2024-02-15T14:06:49;15.50;99.90
79049;DHT22;68680;50.764;6.120;2024-02-15T14:09:15;15.50;99.90
79049;DHT22;68680;50.764;6.120;2024-02-15T14:11:41;15.40;99.90
79049;DHT22;68680;50.764;6.120;2024-02-15T14:14:06;15.40;99.90
79049;DHT22;68680;50.764;6.120;2024-02-15T14:16:34;15.30;99.90
79049;DHT22;68680;50.764;6.120;2024-02-15T14:18:59;15.20;99.90
79049;DHT22;68680;50.764;6.120;2024-02-15T14:21:25;15.20;99.90
79049;DHT22;68680;50.764;6.120;2024-02-15T14:23:51;15.20;99.90
79049;DHT22;68680;50.764;6.120;2024-02-15T14:26:17;15.20;99.90
79049;DHT22;68680;50.764;6.120;2024-02-15T14:28:43;15.20;99.90
79049;DHT22;68680;50.764;6.120;2024-02-15T14:31:11;15.20;99.90
79049;DHT22;68680;50.764;6.120;2024-02-15T14:33:38;15.40;99.90
79049;DHT22;68680;50.764;6.120;2024-02-15T14:36:04;15.50;99.90
79049;DHT22;68680;50.764;6.120;2024-02-15T14:38:30;15.60;99.90
79049;DHT22;68680;50.764;6.120;2024-02-15T14:40:56;15.60;99.90
79049;DHT22;68680;50.764;6.120;2024-02-15T14:43:22;15.70;99.90
79049;DHT22;68680;50.764;6.120;2024-02-15T14:45:49;15.70;99.90
79049;DHT22;68680;50.764;6.120;2024-02-15T14:48:15;15.70;99.90
79049;DHT22;68680;50.764;6.120;2024-02-15T14:50:43;15.70;99.90
79049;DHT22;68680;50.764;6.120;2024-02-15T14:53:09;15.60;99.90
79049;DHT22;68680;50.764;6.120;2024-02-15T14:55:35;15.60;99.90
79049;DHT22;68680;50.764;6.120;2024-02-15T14:58:01;15.60;99.90
79049;DHT22;68680;50.764;6.120;2024-02-15T15:00:27;15.50;99.90
79049;DHT22;68680;50.764;6.120;2024-02-15T15:02:53;15.50;99.90
79049;DHT22;68680;50.764;6.120;2024-02-15T15:05:19;15.50;99.90
79049;DHT22;68680;50.764;6.120;2024-02-15T15:07:47;15.50;99.90
79049;DHT22;68680;50.764;6.120;2024-02-15T15:10:13;15.50;99.90
79049;DHT22;68680;50.764;6.120;2024-02-15T15:12:38;15.60;99.90
79049;DHT22;68680;50.764;6.120;2024-02-15T15:15:05;15.60;99.90
79049;DHT22;68680;50.764;6.120;2024-02-15T15:17:31;15.60;99.90
79049;DHT22;68680;50.764;6.120;2024-02-15T15:19:57;15.60;99.90
79049;DHT22;68680;50.764;6.120;2024-02-15T15:22:23;15.70;99.90
79049;DHT22;68680;50.764;6.120;2024-02-15T15:24:50;15.90;99.90
79049;DHT22;68680;50.764;6.120;2024-02-15T15:27:16;16.00;99.90